createdAt,value
2023-05-19T04:13:59.720Z,11.89
2023-05-19T04:26:31.224Z,12.08
2023-05-19T04:29:36.554Z,12.30
2023-05-19T04:32:41.671Z,12.51
2023-05-19T04:35:45.289Z,12.69
2023-05-19T04:38:49.566Z,12.94
2023-05-19T04:42:01.477Z,13.03
2023-05-19T04:45:15.469Z,12.95
2023-05-19T04:48:26.165Z,12.92
2023-05-19T04:51:31.595Z,13.17
2023-05-19T04:54:39.430Z,13.11
2023-05-19T04:57:42.913Z,13.19
2023-05-19T05:00:46.501Z,13.40
2023-05-19T05:03:59.627Z,13.63
2023-05-19T05:07:03.190Z,13.46
2023-05-19T05:10:08.551Z,13.26
2023-05-19T05:13:15.625Z,13.27
2023-05-19T05:16:30.617Z,13.31
2023-05-19T05:19:35.080Z,13.33
2023-05-19T05:22:42.792Z,13.40
2023-05-19T05:25:47.357Z,13.56
2023-05-19T05:28:51.945Z,13.76
2023-05-19T05:31:59.562Z,14.01
2023-05-19T05:35:02.774Z,14.17
2023-05-19T05:38:13.845Z,14.57
2023-05-19T05:41:18.053Z,14.78
2023-05-19T05:44:23.005Z,15.81
2023-05-19T05:47:32.163Z,16.93
2023-05-19T05:50:43.909Z,17.91
2023-05-19T05:53:55.312Z,18.19
2023-05-19T05:57:02.860Z,18.95
2023-05-19T06:00:22.441Z,19.33
2023-05-19T06:06:38.970Z,19.15
2023-05-19T06:09:46.621Z,19.12
2023-05-19T06:12:51.041Z,18.43
2023-05-19T06:15:59.249Z,17.93
2023-05-19T06:19:05.595Z,17.60
2023-05-19T06:22:09.777Z,17.53
2023-05-19T06:25:12.878Z,17.82
2023-05-19T06:28:16.606Z,17.04
2023-05-19T06:31:20.974Z,17.43
2023-05-19T06:34:26.994Z,17.63
2023-05-19T06:37:30.852Z,17.98
2023-05-19T06:40:34.007Z,17.23
2023-05-19T06:43:40.610Z,17.05
2023-05-19T06:46:50.415Z,17.67
2023-05-19T06:49:57.105Z,17.84
2023-05-19T06:53:06.151Z,17.97
2023-05-19T06:56:09.855Z,18.62
2023-05-19T06:59:13.646Z,18.36
2023-05-19T07:02:17.288Z,18.57
2023-05-19T07:05:21.209Z,18.36
2023-05-19T07:08:28.624Z,18.61
2023-05-19T07:11:33.946Z,19.09
2023-05-19T07:14:39.535Z,19.26
2023-05-19T07:17:49.966Z,20.00
2023-05-19T07:20:53.844Z,20.47
2023-05-19T07:23:56.660Z,20.73
2023-05-19T07:27:05.527Z,20.30
2023-05-19T07:30:09.028Z,21.13
2023-05-19T07:33:14.845Z,21.03
2023-05-19T07:36:18.435Z,20.30
2023-05-19T07:39:22.008Z,20.87
2023-05-19T07:42:26.810Z,21.21
2023-05-19T07:45:29.612Z,21.66
2023-05-19T07:48:32.857Z,20.95
2023-05-19T07:51:42.711Z,21.31
2023-05-19T07:54:46.175Z,20.50
2023-05-19T07:57:52.265Z,21.09
2023-05-19T08:00:58.715Z,20.75
2023-05-19T08:04:02.585Z,22.04
2023-05-19T08:07:05.634Z,21.85
2023-05-19T08:10:09.409Z,22.20
2023-05-19T08:13:16.143Z,22.07
2023-05-19T08:16:19.324Z,22.17
2023-05-19T08:19:24.871Z,22.47
2023-05-19T08:22:30.739Z,21.82
2023-05-19T08:25:33.244Z,22.58
2023-05-19T08:28:37.204Z,22.24
2023-05-19T08:31:48.625Z,22.76
2023-05-19T08:34:52.098Z,23.17
2023-05-19T08:38:01.630Z,23.33
2023-05-19T08:41:05.914Z,22.52
2023-05-19T08:44:10.543Z,23.63
2023-05-19T08:47:15.298Z,22.71
2023-05-19T08:50:24.962Z,23.00
2023-05-19T08:53:36.929Z,21.64
2023-05-19T08:56:46.873Z,20.99
2023-05-19T08:59:52.866Z,21.68
2023-05-19T09:03:06.075Z,21.74
2023-05-19T09:06:22.494Z,21.58
2023-05-19T09:09:32.032Z,20.88
2023-05-19T09:12:38.051Z,20.65
2023-05-19T09:15:41.616Z,20.97
2023-05-19T09:18:59.648Z,20.23
2023-05-19T09:22:03.941Z,20.59
2023-05-19T09:25:20.447Z,21.01
2023-05-19T09:28:31.637Z,21.61
2023-05-19T09:31:40.910Z,22.34
2023-05-19T09:34:47.619Z,23.48
2023-05-19T09:37:51.507Z,23.40
2023-05-19T09:41:01.862Z,22.49
2023-05-19T09:44:07.570Z,22.15
2023-05-19T09:47:11.147Z,21.83
2023-05-19T09:50:21.515Z,21.51
2023-05-19T09:53:25.868Z,22.09
2023-05-19T09:56:34.451Z,21.87
2023-05-19T09:59:40.373Z,22.16
2023-05-19T10:02:47.666Z,23.08
2023-05-19T10:05:53.204Z,22.16
2023-05-19T10:08:58.580Z,21.48
2023-05-19T10:12:03.224Z,21.90
2023-05-19T10:15:11.575Z,22.11
2023-05-19T10:18:18.830Z,21.95
2023-05-19T10:21:23.606Z,22.85
2023-05-19T10:24:28.061Z,22.54
2023-05-19T10:27:32.817Z,23.67
2023-05-19T10:30:41.836Z,24.34
2023-05-19T10:34:02.440Z,24.49
2023-05-19T10:37:33.844Z,23.92
2023-05-19T10:41:11.929Z,23.51
2023-05-19T10:44:44.190Z,23.81
2023-05-19T10:47:49.676Z,23.62
2023-05-19T10:50:55.061Z,23.48
2023-05-19T10:54:00.573Z,22.69
2023-05-19T10:57:08.614Z,22.77
2023-05-19T11:00:32.232Z,22.24
2023-05-19T11:03:59.616Z,23.39
2023-05-19T11:07:07.741Z,24.08
2023-05-19T11:10:23.439Z,24.96
2023-05-19T11:16:33.380Z,23.01
2023-05-19T11:19:56.163Z,22.10
2023-05-19T11:23:08.739Z,23.58
2023-05-19T11:26:15.617Z,23.93
2023-05-19T11:29:21.903Z,24.96
2023-05-19T11:32:34.684Z,25.51
2023-05-19T11:35:40.330Z,24.20
2023-05-19T11:38:45.498Z,22.99
2023-05-19T11:41:51.681Z,23.48
2023-05-19T11:45:00.147Z,24.38
2023-05-19T11:48:07.132Z,24.89
2023-05-19T11:51:10.485Z,25.44
2023-05-19T11:54:22.559Z,24.86
2023-05-19T11:57:26.741Z,24.64
2023-05-19T12:00:40.196Z,23.89
2023-05-19T12:03:51.784Z,24.48
2023-05-19T12:06:56.803Z,24.32
2023-05-19T12:10:00.199Z,23.65
2023-05-19T12:13:13.551Z,23.90
2023-05-19T12:16:21.869Z,23.88
2023-05-19T12:19:27.696Z,23.99
2023-05-19T12:22:32.827Z,24.33
2023-05-19T12:25:42.509Z,24.41
2023-05-19T12:28:55.593Z,24.32
2023-05-19T12:31:59.450Z,24.13
2023-05-19T12:35:07.653Z,24.16
2023-05-19T12:38:24.885Z,25.06
2023-05-19T12:41:35.025Z,24.35
2023-05-19T12:44:48.570Z,24.05
2023-05-19T12:48:06.708Z,24.42
2023-05-19T12:51:12.673Z,24.21
2023-05-19T12:54:22.675Z,24.28
2023-05-19T12:57:35.602Z,24.42
2023-05-19T13:00:49.875Z,24.69
2023-05-19T13:03:57.678Z,25.34
2023-05-19T13:07:08.519Z,25.66
2023-05-19T13:10:13.826Z,24.75
2023-05-19T13:13:17.243Z,24.08
2023-05-19T13:16:21.109Z,24.24
2023-05-19T13:19:26.622Z,24.57
2023-05-19T13:22:39.873Z,24.41
2023-05-19T13:25:44.038Z,24.24
2023-05-19T13:28:47.947Z,24.06
2023-05-19T13:31:51.872Z,23.57
2023-05-19T13:34:55.660Z,23.42
2023-05-19T13:38:01.322Z,23.66
2023-05-19T13:41:05.357Z,23.30
2023-05-19T13:44:08.918Z,23.36
2023-05-19T13:47:12.708Z,23.14
2023-05-19T13:50:16.246Z,23.14
2023-05-19T13:53:21.145Z,23.50
2023-05-19T13:56:32.678Z,23.43
2023-05-19T13:59:52.829Z,24.26
2023-05-19T14:03:19.760Z,23.61
2023-05-19T14:06:29.319Z,23.96
2023-05-19T14:09:32.051Z,23.93
2023-05-19T14:12:52.801Z,23.68
2023-05-19T14:16:02.707Z,23.86
2023-05-19T14:19:07.404Z,23.79
2023-05-19T14:22:21.602Z,24.03
2023-05-19T14:25:31.615Z,24.11
2023-05-19T14:28:35.813Z,24.61
2023-05-19T14:31:45.894Z,23.79
2023-05-19T14:34:52.949Z,23.36
2023-05-19T14:38:01.666Z,23.34
2023-05-19T14:41:11.125Z,23.17
2023-05-19T14:44:20.895Z,23.07
2023-05-19T14:47:26.270Z,23.27
2023-05-19T14:50:34.846Z,23.59
2023-05-19T14:53:39.100Z,23.52
2023-05-19T14:56:44.588Z,23.51
2023-05-19T14:59:56.629Z,23.38
2023-05-19T15:03:01.521Z,23.25
2023-05-19T15:06:10.829Z,23.31
2023-05-19T15:09:15.683Z,23.37
2023-05-19T15:12:25.366Z,23.58
2023-05-19T15:15:33.029Z,23.84
2023-05-19T15:18:42.220Z,23.97
2023-05-19T15:21:50.784Z,24.11
2023-05-19T15:24:54.008Z,23.87
2023-05-19T15:28:00.671Z,23.88
2023-05-19T15:31:04.334Z,23.61
2023-05-19T15:34:09.026Z,23.46
2023-05-19T15:37:19.155Z,23.32
2023-05-19T15:40:29.849Z,23.14
2023-05-19T15:43:34.378Z,23.12
2023-05-19T15:46:38.338Z,22.93
2023-05-19T15:49:50.156Z,22.82
2023-05-19T15:53:02.760Z,22.97
2023-05-19T15:56:13.681Z,23.00
2023-05-19T15:59:23.937Z,22.87
2023-05-19T16:02:36.729Z,22.80
2023-05-19T16:05:40.123Z,22.67
2023-05-19T16:08:43.703Z,22.53
2023-05-19T16:11:54.570Z,22.40
2023-05-19T16:14:58.677Z,22.30
2023-05-19T16:18:05.697Z,22.27
2023-05-19T16:21:10.602Z,22.23
2023-05-19T16:24:21.911Z,22.19
2023-05-19T16:27:25.105Z,22.15
2023-05-19T16:30:28.418Z,22.22
2023-05-19T16:33:33.270Z,22.13
2023-05-19T16:36:37.407Z,22.00
2023-05-19T16:39:41.631Z,21.91
2023-05-19T16:42:48.050Z,21.80
2023-05-19T16:46:04.244Z,21.73
2023-05-19T16:49:12.001Z,21.63
2023-05-19T16:52:18.626Z,21.56
2023-05-19T16:55:22.957Z,21.47
2023-05-19T16:58:26.818Z,21.37
2023-05-19T17:01:39.221Z,21.26
2023-05-19T17:04:45.651Z,21.18
2023-05-19T17:07:56.180Z,21.07
2023-05-19T17:11:03.725Z,21.00
2023-05-19T17:14:10.623Z,20.94
2023-05-19T17:17:25.983Z,20.81
2023-05-19T17:20:36.073Z,20.76
2023-05-19T17:23:42.978Z,20.67
2023-05-19T17:26:51.617Z,20.54
2023-05-19T17:30:01.137Z,20.41
2023-05-19T17:33:12.708Z,20.33
2023-05-19T17:36:27.668Z,20.23
2023-05-19T17:39:33.610Z,20.12
2023-05-19T17:42:44.104Z,19.98
2023-05-19T17:45:52.610Z,19.83
2023-05-19T17:48:56.123Z,19.74
2023-05-19T17:52:07.632Z,19.61
2023-05-19T17:55:12.785Z,19.50
2023-05-19T17:58:18.260Z,19.30
2023-05-19T18:01:30.605Z,19.15
2023-05-19T18:04:39.587Z,19.01
2023-05-19T18:07:45.632Z,18.89
2023-05-19T18:10:58.664Z,18.73
2023-05-19T18:14:02.442Z,18.61
2023-05-19T18:17:13.919Z,18.48
2023-05-19T18:20:18.810Z,18.31
2023-05-19T18:23:26.797Z,18.22
2023-05-19T18:26:39.567Z,18.12
2023-05-19T18:29:50.385Z,17.98
2023-05-19T18:33:05.696Z,17.86
2023-05-19T18:36:10.155Z,17.75
2023-05-19T18:39:16.897Z,17.66
2023-05-19T18:42:28.678Z,17.56
2023-05-19T18:45:37.985Z,17.47
2023-05-19T18:48:53.900Z,17.39
2023-05-19T18:52:08.552Z,17.33
2023-05-19T18:55:20.859Z,17.29
2023-05-19T18:58:38.724Z,17.25
2023-05-19T19:01:46.729Z,17.21
2023-05-19T19:04:51.904Z,17.20
2023-05-19T19:08:03.525Z,17.18
2023-05-19T19:11:13.784Z,17.15
2023-05-19T19:14:22.699Z,17.12
2023-05-19T19:17:32.860Z,17.12
2023-05-19T19:20:43.750Z,17.11
2023-05-19T19:23:51.919Z,17.08
2023-05-19T19:27:02.684Z,17.10
2023-05-19T19:30:09.682Z,17.10
2023-05-19T19:33:12.965Z,17.09
2023-05-19T19:36:25.802Z,17.09
2023-05-19T19:39:36.126Z,17.12
2023-05-19T19:42:41.115Z,17.16
2023-05-19T19:45:45.241Z,17.15
2023-05-19T19:48:48.696Z,17.16
2023-05-19T19:51:59.756Z,17.16
2023-05-19T19:55:06.712Z,17.18
2023-05-19T19:58:10.735Z,17.17
2023-05-19T20:01:16.087Z,17.13
2023-05-19T20:04:20.861Z,17.13
2023-05-19T20:07:33.535Z,17.11
2023-05-19T20:10:38.205Z,17.11
2023-05-19T20:13:49.093Z,17.15
2023-05-19T20:16:54.834Z,17.16
2023-05-19T20:20:09.808Z,17.18
2023-05-19T20:23:19.146Z,17.20
2023-05-19T20:26:23.001Z,17.19
2023-05-19T20:29:27.690Z,17.18
2023-05-19T20:32:30.413Z,17.15
2023-05-19T20:35:35.152Z,17.16
2023-05-19T20:38:42.701Z,17.17
2023-05-19T20:41:45.564Z,17.16
2023-05-19T20:44:48.505Z,17.14
2023-05-19T20:47:52.842Z,17.13
2023-05-19T20:50:58.291Z,17.12
2023-05-19T20:54:01.750Z,17.12
2023-05-19T20:57:09.546Z,17.10
2023-05-19T21:00:15.952Z,17.13
2023-05-19T21:03:19.337Z,17.17
2023-05-19T21:06:23.435Z,17.14
2023-05-19T21:09:26.193Z,17.12
2023-05-19T21:12:35.829Z,17.07
2023-05-19T21:15:38.680Z,17.02
2023-05-19T21:18:46.176Z,16.98
2023-05-19T21:21:50.298Z,16.92
2023-05-19T21:24:55.465Z,16.87
2023-05-19T21:28:00.693Z,16.80
2023-05-19T21:31:06.625Z,16.77
2023-05-19T21:34:11.244Z,16.73
2023-05-19T21:37:14.394Z,16.67
2023-05-19T21:40:20.878Z,16.58
2023-05-19T21:43:33.631Z,16.52
2023-05-19T21:46:36.517Z,16.48
2023-05-19T21:49:40.243Z,16.41
2023-05-19T21:52:43.128Z,16.37
2023-05-19T21:55:46.888Z,16.36
2023-05-19T21:58:49.498Z,16.32
2023-05-19T22:01:52.853Z,16.25
2023-05-19T22:04:56.234Z,16.23
2023-05-19T22:07:59.125Z,16.21
2023-05-19T22:11:02.618Z,16.16
2023-05-19T22:14:05.492Z,16.14
2023-05-19T22:17:09.566Z,16.16
2023-05-19T22:20:13.758Z,16.11
2023-05-19T22:23:16.945Z,16.04
2023-05-19T22:26:22.272Z,15.99
2023-05-19T22:29:25.411Z,15.93
2023-05-19T22:32:29.020Z,15.88
2023-05-19T22:35:33.178Z,15.87
2023-05-19T22:38:36.439Z,15.83
2023-05-19T22:41:39.650Z,15.82
2023-05-19T22:44:43.257Z,15.78
2023-05-19T22:47:48.158Z,15.76
2023-05-19T22:50:50.696Z,15.76
2023-05-19T22:53:53.820Z,15.74
2023-05-19T22:56:56.831Z,15.70
2023-05-19T23:00:00.147Z,15.68
2023-05-19T23:03:09.989Z,15.64
2023-05-19T23:06:13.872Z,15.59
2023-05-19T23:09:17.948Z,15.51
2023-05-19T23:12:21.042Z,15.47
2023-05-19T23:15:24.162Z,15.47
2023-05-19T23:18:30.193Z,15.44
2023-05-19T23:21:33.066Z,15.43
2023-05-19T23:24:36.007Z,15.38
2023-05-19T23:27:39.311Z,15.34
2023-05-19T23:30:42.242Z,15.33
2023-05-19T23:33:45.619Z,15.30
2023-05-19T23:36:48.836Z,15.26
2023-05-19T23:39:52.608Z,15.18
2023-05-19T23:42:55.901Z,15.08
2023-05-19T23:45:59.019Z,15.07
2023-05-19T23:49:01.870Z,15.05
2023-05-19T23:52:06.657Z,15.00
2023-05-19T23:55:10.720Z,14.96
2023-05-19T23:58:13.472Z,14.98
